TAF KBFL
KBFL 072320Z 0800/0824 VRB03KT 4SM HZ FEW100 FM080600 VRB03KT 4SM BR SKC FM081000 08003KT 2SM BR SKC FM082000 29004KT 4SM HZ SCT250=
METAR KBFL
WC KBFL
WS KBFL
WV KBFL